Time;durP1;ratioP1;P1;durP2;ratioP2;P2;SDS_P1;SDS_P2;PMS_P1;PMS_P2;Temp;Humidity;BMP_temperature;BMP_pressure;BME280_temperature;BME280_humidity;BME280_pressure;Samples;Min_cycle;Max_cycle;Signal;HPM_P1;HPM_P2
2024/03/06 00:01:45;;;;;;;24.40;13.13;;;4.40;1.00;;;;;;5105146;28;20201;-81
2024/03/06 00:04:12;;;;;;;22.33;12.43;;;4.40;1.00;;;;;;5095399;28;20686;-79
2024/03/06 00:06:40;;;;;;;25.10;12.93;;;4.50;1.00;;;;;;5104714;28;20304;-81
2024/03/06 00:09:08;;;;;;;24.00;12.33;;;4.50;1.00;;;;;;5107724;28;20694;-78
2024/03/06 00:11:35;;;;;;;22.53;13.00;;;4.50;1.00;;;;;;5106360;28;20323;-80
2024/03/06 00:14:05;;;;;;;24.23;12.43;;;4.50;1.00;;;;;;5103829;28;20201;-80
2024/03/06 00:16:31;;;;;;;22.93;12.60;;;4.40;1.00;;;;;;5113601;28;20228;-80
2024/03/06 00:18:58;;;;;;;23.47;12.47;;;4.50;1.00;;;;;;5105784;28;20228;-81
2024/03/06 00:21:25;;;;;;;25.60;12.53;;;4.50;1.00;;;;;;5104795;28;20233;-81
2024/03/06 00:23:53;;;;;;;23.87;13.83;;;4.50;1.00;;;;;;5098747;28;20574;-79
2024/03/06 00:26:20;;;;;;;25.97;13.20;;;4.50;1.00;;;;;;5101870;28;20566;-82
2024/03/06 00:28:46;;;;;;;25.57;14.90;;;4.50;1.00;;;;;;5112074;28;20205;-82
2024/03/06 00:31:13;;;;;;;22.83;13.37;;;4.50;1.00;;;;;;5109684;28;20672;-80
2024/03/06 00:33:41;;;;;;;25.10;14.83;;;4.50;1.00;;;;;;5098567;28;20591;-82
2024/03/06 00:36:08;;;;;;;24.77;14.20;;;4.50;32.10;;;;;;5095979;28;20588;-82
2024/03/06 00:38:34;;;;;;;25.60;13.33;;;4.50;36.60;;;;;;5106152;28;20206;-82
2024/03/06 00:41:03;;;;;;;25.30;14.17;;;4.40;1.00;;;;;;5099306;28;20223;-80
2024/03/06 00:43:31;;;;;;;25.53;13.97;;;4.40;24.30;;;;;;5116682;28;20541;-83
2024/03/06 00:45:59;;;;;;;26.40;14.30;;;4.40;96.70;;;;;;5114802;28;20287;-83
2024/03/06 00:48:26;;;;;;;26.47;14.13;;;4.50;94.30;;;;;;5107276;28;20301;-80
2024/03/06 00:50:53;;;;;;;26.50;14.33;;;4.40;99.90;;;;;;5106998;28;20221;-81
2024/03/06 00:53:19;;;;;;;24.80;14.60;;;4.40;99.90;;;;;;5102563;28;20208;-80
2024/03/06 00:55:46;;;;;;;24.23;13.67;;;4.40;99.90;;;;;;5109972;28;20261;-82
2024/03/06 00:58:14;;;;;;;28.53;15.07;;;4.40;99.90;;;;;;5104499;28;20201;-81
2024/03/06 01:00:41;;;;;;;26.93;15.13;;;4.40;99.90;;;;;;5110497;28;20222;-79
2024/03/06 01:03:08;;;;;;;25.77;13.93;;;4.40;99.90;;;;;;5108660;28;20205;-81
2024/03/06 01:05:35;;;;;;;27.80;14.83;;;4.40;99.90;;;;;;5107086;28;20288;-79
2024/03/06 01:08:01;;;;;;;27.07;13.70;;;4.40;99.90;;;;;;5113070;28;20204;-79
2024/03/06 01:10:28;;;;;;;27.23;15.63;;;4.40;99.90;;;;;;5106609;28;20255;-81
2024/03/06 01:12:55;;;;;;;27.20;15.20;;;4.40;11.80;;;;;;5113045;28;20266;-81
2024/03/06 01:15:23;;;;;;;28.63;15.43;;;4.50;40.60;;;;;;5117351;28;20227;-82
2024/03/06 01:17:50;;;;;;;27.07;15.23;;;4.40;99.90;;;;;;5117489;28;20204;-79
2024/03/06 01:20:18;;;;;;;28.00;15.13;;;4.60;99.90;;;;;;5114197;28;20209;-81
2024/03/06 01:22:45;;;;;;;28.20;17.07;;;4.40;99.90;;;;;;5112118;28;20565;-84
2024/03/06 01:25:12;;;;;;;28.50;15.00;;;4.50;99.90;;;;;;5113076;28;20254;-82
2024/03/06 01:27:39;;;;;;;30.23;16.27;;;4.50;99.90;;;;;;5115533;28;20201;-83
2024/03/06 01:30:07;;;;;;;26.77;15.67;;;4.50;99.90;;;;;;5099024;28;20264;-82
2024/03/06 01:32:35;;;;;;;30.73;17.57;;;4.50;99.90;;;;;;5103924;28;20197;-83
2024/03/06 01:35:02;;;;;;;28.43;15.47;;;4.50;99.90;;;;;;5104792;28;20200;-80
2024/03/06 01:37:29;;;;;;;28.00;14.03;;;4.50;99.90;;;;;;5103812;28;20198;-82
2024/03/06 01:39:55;;;;;;;29.00;15.93;;;4.50;99.90;;;;;;5102682;28;20224;-81
2024/03/06 01:42:22;;;;;;;32.60;16.83;;;4.50;99.90;;;;;;5097184;28;20289;-81
2024/03/06 01:44:49;;;;;;;30.83;16.30;;;4.50;99.90;;;;;;5103699;28;20601;-81
2024/03/06 01:47:16;;;;;;;28.23;15.57;;;4.50;99.90;;;;;;5099657;28;20655;-81
2024/03/06 01:49:44;;;;;;;28.93;16.23;;;4.50;1.00;;;;;;5099769;28;20226;-81
2024/03/06 01:52:14;;;;;;;28.03;15.07;;;4.40;1.00;;;;;;5100323;28;20283;-80
2024/03/06 01:54:42;;;;;;;28.47;15.87;;;4.40;1.00;;;;;;5108064;28;20207;-81
2024/03/06 01:57:13;;;;;;;28.90;16.80;;;4.50;1.00;;;;;;5109521;28;20209;-81
2024/03/06 01:59:40;;;;;;;32.17;16.10;;;4.50;1.00;;;;;;5100840;28;20229;-80
2024/03/06 02:02:08;;;;;;;25.37;14.70;;;4.40;1.00;;;;;;5104907;28;20207;-80
2024/03/06 02:04:35;;;;;;;27.30;16.27;;;4.50;1.00;;;;;;5111024;28;20209;-81
2024/03/06 02:07:04;;;;;;;26.40;15.47;;;4.40;1.00;;;;;;5112113;28;20205;-81
2024/03/06 02:09:30;;;;;;;29.77;17.73;;;4.50;1.00;;;;;;5111809;28;20192;-81
2024/03/06 02:11:58;;;;;;;29.97;15.50;;;4.40;1.00;;;;;;5105616;28;20214;-81
2024/03/06 02:14:26;;;;;;;33.33;17.70;;;4.50;1.00;;;;;;5108775;28;20201;-81
2024/03/06 02:16:53;;;;;;;29.67;16.73;;;4.40;1.00;;;;;;5107685;28;20205;-80
2024/03/06 02:19:19;;;;;;;32.20;18.17;;;4.40;1.00;;;;;;5107460;28;20201;-81
2024/03/06 02:21:48;;;;;;;27.40;15.87;;;4.60;1.00;;;;;;5109294;28;20199;-80
2024/03/06 02:24:15;;;;;;;33.13;15.30;;;4.50;99.90;;;;;;5108013;28;20644;-80
2024/03/06 02:26:41;;;;;;;27.13;15.13;;;4.50;1.00;;;;;;5111646;28;20720;-82
2024/03/06 02:29:10;;;;;;;31.07;16.33;;;4.50;1.00;;;;;;5107055;28;20864;-81
2024/03/06 02:31:39;;;;;;;30.03;16.57;;;4.40;1.00;;;;;;5106453;28;20217;-81
2024/03/06 02:34:06;;;;;;;32.47;17.47;;;4.50;1.00;;;;;;5099342;28;20229;-81
2024/03/06 02:36:33;;;;;;;27.73;16.00;;;4.50;1.00;;;;;;5096318;28;20204;-80
2024/03/06 02:39:01;;;;;;;29.70;16.13;;;4.50;1.00;;;;;;5099804;28;20205;-81
2024/03/06 02:41:28;;;;;;;29.20;16.40;;;4.40;99.90;;;;;;5102271;28;20252;-81
2024/03/06 02:43:55;;;;;;;31.50;16.50;;;4.40;99.90;;;;;;5100809;28;20216;-81
2024/03/06 02:46:22;;;;;;;31.73;16.27;;;4.40;99.90;;;;;;5105533;28;20558;-80
2024/03/06 02:48:48;;;;;;;28.97;16.03;;;4.40;1.00;;;;;;5102054;28;20655;-81
2024/03/06 02:51:19;;;;;;;31.00;16.77;;;4.40;1.00;;;;;;5108040;28;20739;-81
2024/03/06 02:53:46;;;;;;;28.63;15.07;;;4.40;99.90;;;;;;5103039;28;20233;-81
2024/03/06 02:56:18;;;;;;;27.57;15.30;;;4.40;99.90;;;;;;5113467;28;20262;-81
2024/03/06 02:58:45;;;;;;;29.43;17.10;;;4.40;1.00;;;;;;5109312;28;20644;-81
2024/03/06 03:01:12;;;;;;;32.40;16.63;;;4.40;99.90;;;;;;5110820;28;20586;-81
2024/03/06 03:03:41;;;;;;;28.07;16.53;;;4.40;99.90;;;;;;5110409;28;20239;-81
2024/03/06 03:06:08;;;;;;;27.70;14.97;;;4.40;99.90;;;;;;5110681;28;20205;-81
2024/03/06 03:08:35;;;;;;;27.13;15.20;;;4.40;1.00;;;;;;5109626;28;20211;-81
2024/03/06 03:11:02;;;;;;;30.63;16.53;;;4.40;99.90;;;;;;5111988;28;20223;-81
2024/03/06 03:13:31;;;;;;;27.73;15.30;;;4.40;99.90;;;;;;5111284;28;20291;-81
2024/03/06 03:15:58;;;;;;;27.97;14.80;;;4.40;99.90;;;;;;5111500;28;20201;-80
2024/03/06 03:18:25;;;;;;;28.47;15.70;;;4.40;91.60;;;;;;5105932;28;20197;-79
2024/03/06 03:20:51;;;;;;;28.70;15.10;;;4.40;99.90;;;;;;5112979;28;20209;-81
2024/03/06 03:23:21;;;;;;;29.00;15.03;;;4.50;99.90;;;;;;5106959;28;20603;-81
2024/03/06 03:25:49;;;;;;;31.47;15.93;;;4.40;1.00;;;;;;5112948;28;20206;-81
2024/03/06 03:28:16;;;;;;;29.60;16.83;;;4.40;1.00;;;;;;5105677;28;20193;-81
2024/03/06 03:30:45;;;;;;;26.10;14.23;;;4.40;1.00;;;;;;5107877;28;20241;-80
2024/03/06 03:33:12;;;;;;;28.80;16.57;;;4.40;1.00;;;;;;5106968;28;20201;-81
2024/03/06 03:35:39;;;;;;;32.17;16.17;;;4.40;1.00;;;;;;5109888;28;20216;-81
2024/03/06 03:38:06;;;;;;;27.97;15.13;;;4.40;1.00;;;;;;5099688;28;20583;-80
2024/03/06 03:40:33;;;;;;;28.33;14.70;;;4.40;1.00;;;;;;5101025;28;20232;-80
2024/03/06 03:43:05;;;;;;;26.43;14.87;;;4.50;1.00;;;;;;5099941;28;20221;-81
2024/03/06 03:45:33;;;;;;;26.83;14.63;;;4.50;1.00;;;;;;5099227;28;20267;-81
2024/03/06 03:48:02;;;;;;;22.27;12.63;;;4.50;1.00;;;;;;5102725;28;20656;-81
2024/03/06 03:50:29;;;;;;;32.90;17.57;;;4.50;1.00;;;;;;5107305;28;20227;-81
2024/03/06 03:52:57;;;;;;;28.57;15.23;;;4.50;1.00;;;;;;5102999;28;20221;-80
2024/03/06 03:55:25;;;;;;;30.10;15.83;;;4.40;1.00;;;;;;5101549;28;20270;-81
2024/03/06 03:57:52;;;;;;;26.30;14.60;;;4.40;1.00;;;;;;5107821;28;20709;-81
2024/03/06 04:00:19;;;;;;;28.80;15.50;;;4.50;1.00;;;;;;5105652;27;20247;-81
2024/03/06 04:02:46;;;;;;;27.77;15.07;;;4.50;1.00;;;;;;5105854;28;20207;-81
2024/03/06 04:05:14;;;;;;;27.23;15.23;;;4.50;1.00;;;;;;5105473;28;20671;-81
2024/03/06 04:07:41;;;;;;;28.47;14.70;;;4.50;1.00;;;;;;5107931;28;20202;-81
2024/03/06 04:10:11;;;;;;;28.57;15.47;;;4.50;1.00;;;;;;5108208;28;20229;-80
2024/03/06 04:12:38;;;;;;;26.70;15.53;;;4.50;1.00;;;;;;5106213;28;20198;-80
2024/03/06 04:15:06;;;;;;;29.80;15.80;;;4.50;1.00;;;;;;5110395;28;20192;-81
2024/03/06 04:17:33;;;;;;;28.33;15.83;;;4.50;1.00;;;;;;5108828;27;20667;-81
2024/03/06 04:19:59;;;;;;;28.87;15.77;;;4.50;1.00;;;;;;5110586;28;20221;-81
2024/03/06 04:22:28;;;;;;;29.70;15.80;;;4.50;1.00;;;;;;5110034;28;20201;-81
2024/03/06 04:24:58;;;;;;;28.90;14.67;;;4.40;1.00;;;;;;5102354;28;20257;-80
2024/03/06 04:27:25;;;;;;;24.20;13.97;;;4.40;1.00;;;;;;5108025;28;20204;-81
2024/03/06 04:29:52;;;;;;;28.80;13.50;;;4.50;1.00;;;;;;5110423;28;20222;-81
2024/03/06 04:32:19;;;;;;;28.10;15.93;;;4.40;1.00;;;;;;5109752;28;20228;-81
2024/03/06 04:34:46;;;;;;;26.57;14.80;;;4.50;10.60;;;;;;5106981;28;20204;-81
2024/03/06 04:37:13;;;;;;;29.80;15.67;;;4.40;1.00;;;;;;5098713;28;20232;-82
2024/03/06 04:39:42;;;;;;;27.33;14.83;;;4.40;1.00;;;;;;5102586;28;20232;-81
2024/03/06 04:42:08;;;;;;;25.80;15.27;;;4.40;1.00;;;;;;5101903;28;20663;-81
2024/03/06 04:44:37;;;;;;;26.63;14.57;;;4.50;1.00;;;;;;5103435;28;20213;-80
2024/03/06 04:47:04;;;;;;;25.80;15.07;;;4.50;1.00;;;;;;5105698;28;20201;-80
2024/03/06 04:49:34;;;;;;;29.57;15.57;;;4.50;1.00;;;;;;5109040;28;20201;-81
2024/03/06 04:52:01;;;;;;;30.03;15.87;;;4.50;1.00;;;;;;5104838;28;20224;-81
2024/03/06 04:54:27;;;;;;;27.47;14.80;;;4.40;1.00;;;;;;5114335;28;20647;-81
2024/03/06 04:56:56;;;;;;;28.17;15.73;;;4.40;1.00;;;;;;5112142;28;20197;-80
2024/03/06 04:59:23;;;;;;;26.77;14.67;;;4.40;1.00;;;;;;5107096;28;20893;-80
2024/03/06 05:01:50;;;;;;;27.40;14.40;;;4.40;1.00;;;;;;5107564;28;20198;-80
2024/03/06 05:04:16;;;;;;;28.87;15.03;;;4.40;1.00;;;;;;5111831;28;20201;-80
2024/03/06 05:06:43;;;;;;;26.37;15.20;;;4.40;1.00;;;;;;5104614;28;20232;-81
2024/03/06 05:09:11;;;;;;;30.07;15.37;;;4.40;1.00;;;;;;5108938;28;20200;-81
2024/03/06 05:11:38;;;;;;;26.73;15.47;;;4.40;1.00;;;;;;5105535;28;20256;-80
2024/03/06 05:14:07;;;;;;;27.60;14.70;;;4.40;1.00;;;;;;5112316;28;20250;-79
2024/03/06 05:16:34;;;;;;;26.57;15.27;;;4.40;1.00;;;;;;5108933;28;20720;-80
2024/03/06 05:19:01;;;;;;;26.73;14.27;;;4.40;1.00;;;;;;5111304;28;20257;-80
2024/03/06 05:21:28;;;;;;;29.57;15.23;;;4.40;44.80;;;;;;5111233;28;20706;-80
2024/03/06 05:23:55;;;;;;;28.43;14.63;;;4.40;1.00;;;;;;5112743;28;20228;-80
2024/03/06 05:26:21;;;;;;;28.47;14.87;;;4.40;1.00;;;;;;5109606;28;20215;-80
2024/03/06 05:28:48;;;;;;;29.33;16.90;;;4.40;99.90;;;;;;5106797;28;20209;-80
2024/03/06 05:31:19;;;;;;;27.83;14.87;;;4.30;1.00;;;;;;5110523;28;20229;-80
2024/03/06 05:33:49;;;;;;;29.60;15.37;;;4.50;99.90;;;;;;5107626;28;20690;-80
2024/03/06 05:36:17;;;;;;;28.23;14.83;;;4.40;86.00;;;;;;5102898;28;20201;-80
2024/03/06 05:38:44;;;;;;;26.73;14.70;;;4.40;66.00;;;;;;5098227;28;20233;-80
2024/03/06 05:41:10;;;;;;;30.43;16.13;;;4.40;93.80;;;;;;5100921;28;20221;-80
2024/03/06 05:43:37;;;;;;;27.47;14.60;;;4.60;99.90;;;;;;5102509;28;20292;-80
2024/03/06 05:46:04;;;;;;;28.00;16.37;;;4.40;1.00;;;;;;5101351;28;20650;-80
2024/03/06 05:48:32;;;;;;;28.03;15.23;;;4.40;99.90;;;;;;5101901;28;20212;-80
2024/03/06 05:50:59;;;;;;;28.93;15.47;;;4.40;1.00;;;;;;5099159;28;20267;-81
2024/03/06 05:53:26;;;;;;;28.03;14.27;;;4.40;1.00;;;;;;5106468;28;20205;-80
2024/03/06 05:55:54;;;;;;;26.30;13.53;;;4.30;99.90;;;;;;5102976;28;20292;-81
2024/03/06 05:58:21;;;;;;;29.30;15.50;;;4.30;99.90;;;;;;5107570;28;20209;-80
2024/03/06 06:00:48;;;;;;;29.40;15.03;;;4.30;99.90;;;;;;5108513;28;20221;-81
2024/03/06 06:03:15;;;;;;;29.93;15.90;;;4.20;99.90;;;;;;5102660;28;20205;-81
2024/03/06 06:05:44;;;;;;;28.00;14.17;;;4.20;99.90;;;;;;5102401;28;20263;-80
2024/03/06 06:08:10;;;;;;;31.37;15.03;;;4.20;99.90;;;;;;5107990;28;20200;-81
2024/03/06 06:10:37;;;;;;;29.57;16.57;;;4.20;99.90;;;;;;5102361;28;20217;-81
2024/03/06 06:13:05;;;;;;;28.90;15.03;;;4.20;1.00;;;;;;5104586;28;20216;-80
2024/03/06 06:15:32;;;;;;;29.27;15.37;;;4.20;1.00;;;;;;5102133;28;20216;-81
2024/03/06 06:17:59;;;;;;;23.80;11.77;;;4.30;1.00;;;;;;5108122;28;20219;-80
2024/03/06 06:20:25;;;;;;;32.30;15.67;;;5.00;99.90;;;;;;5109950;28;20213;-80
2024/03/06 06:22:54;;;;;;;31.17;15.73;;;4.40;1.00;;;;;;5108450;28;20189;-81
2024/03/06 06:25:21;;;;;;;29.00;13.53;;;4.30;99.90;;;;;;5110797;28;20677;-80
2024/03/06 06:27:49;;;;;;;28.73;14.40;;;4.30;1.00;;;;;;5111349;28;20193;-80
2024/03/06 06:30:16;;;;;;;29.73;16.47;;;4.30;99.90;;;;;;5107906;28;20217;-80
2024/03/06 06:32:43;;;;;;;31.50;16.47;;;4.30;1.00;;;;;;5108003;28;20224;-80
2024/03/06 06:35:13;;;;;;;26.50;14.53;;;4.30;99.90;;;;;;5108567;28;20201;-80
2024/03/06 06:37:39;;;;;;;26.90;14.67;;;4.30;99.90;;;;;;5097576;28;20210;-80
2024/03/06 06:40:11;;;;;;;31.57;16.40;;;4.30;1.00;;;;;;5099387;28;20217;-81
2024/03/06 06:42:47;;;;;;;33.53;17.57;;;4.30;99.90;;;;;;5096844;28;20668;-81
2024/03/06 06:45:13;;;;;;;32.60;16.20;;;4.30;99.90;;;;;;5097502;28;20205;-81
2024/03/06 06:47:40;;;;;;;28.67;17.57;;;4.30;1.00;;;;;;5097322;28;20723;-80
2024/03/06 06:50:08;;;;;;;32.97;19.20;;;4.40;99.90;;;;;;5097827;28;20223;-81
2024/03/06 06:52:35;;;;;;;32.00;18.00;;;4.40;99.90;;;;;;5105272;28;20224;-81
2024/03/06 06:55:03;;;;;;;31.10;17.83;;;4.40;99.90;;;;;;5103105;28;20213;-81
2024/03/06 06:57:32;;;;;;;28.23;14.60;;;4.40;99.90;;;;;;5104416;28;20780;-81
2024/03/06 06:59:59;;;;;;;28.83;16.70;;;4.40;99.90;;;;;;5105128;28;20253;-81
2024/03/06 07:02:26;;;;;;;29.97;16.63;;;4.50;99.90;;;;;;5105144;28;20205;-81
2024/03/06 07:04:53;;;;;;;28.67;15.37;;;4.40;91.90;;;;;;5104830;28;20198;-81
2024/03/06 07:07:20;;;;;;;32.57;17.03;;;4.40;99.90;;;;;;5105445;28;20197;-81
2024/03/06 07:09:46;;;;;;;29.70;16.67;;;4.50;99.90;;;;;;5104809;28;20718;-81
2024/03/06 07:12:13;;;;;;;29.50;16.43;;;4.80;99.90;;;;;;5107481;28;20705;-81
2024/03/06 07:14:41;;;;;;;28.90;17.50;;;4.40;99.90;;;;;;5106507;28;20208;-81
2024/03/06 07:17:08;;;;;;;28.57;16.37;;;4.50;99.90;;;;;;5107298;28;20193;-81
2024/03/06 07:19:35;;;;;;;28.60;16.40;;;4.50;1.00;;;;;;5107612;28;20235;-81
2024/03/06 07:22:02;;;;;;;30.17;16.17;;;4.50;1.00;;;;;;5109631;28;20199;-81
2024/03/06 07:24:29;;;;;;;29.80;17.53;;;4.50;1.00;;;;;;5111598;28;20617;-80
2024/03/06 07:26:55;;;;;;;28.77;17.37;;;4.50;1.00;;;;;;5106700;28;20198;-81
2024/03/06 07:29:22;;;;;;;30.50;16.53;;;4.50;1.00;;;;;;5113780;28;20197;-80
2024/03/06 07:31:50;;;;;;;33.63;18.20;;;4.50;1.00;;;;;;5114396;28;20585;-81
2024/03/06 07:34:17;;;;;;;29.90;17.07;;;4.60;1.00;;;;;;5114564;27;20201;-81
2024/03/06 07:36:46;;;;;;;28.23;15.87;;;4.60;1.00;;;;;;5106127;28;20233;-81
2024/03/06 07:39:14;;;;;;;30.67;17.37;;;4.60;1.00;;;;;;5098666;28;20255;-82
2024/03/06 07:41:40;;;;;;;31.07;16.00;;;4.60;1.00;;;;;;5104229;28;20263;-80
2024/03/06 07:44:08;;;;;;;29.93;17.47;;;4.70;1.00;;;;;;5101991;28;20236;-81
2024/03/06 07:46:35;;;;;;;30.77;17.47;;;4.70;1.00;;;;;;5101524;28;20652;-81
2024/03/06 07:49:04;;;;;;;31.20;16.73;;;4.60;1.00;;;;;;5107573;28;20212;-81
2024/03/06 07:51:31;;;;;;;29.43;15.80;;;4.70;1.00;;;;;;5106637;28;20220;-81
2024/03/06 07:53:58;;;;;;;28.57;15.47;;;4.60;1.00;;;;;;5112623;28;20211;-80
2024/03/06 07:56:25;;;;;;;30.87;16.57;;;4.70;1.00;;;;;;5107623;28;20201;-80
2024/03/06 07:58:53;;;;;;;28.13;14.60;;;4.70;99.90;;;;;;5107113;28;20208;-80
2024/03/06 08:01:20;;;;;;;29.47;15.77;;;4.70;1.00;;;;;;5107772;28;20307;-80
2024/03/06 08:03:47;;;;;;;27.30;14.90;;;4.70;1.00;;;;;;5103165;28;20233;-80
2024/03/06 08:06:15;;;;;;;29.57;15.73;;;4.70;12.20;;;;;;5111752;28;20193;-80
2024/03/06 08:08:43;;;;;;;29.57;15.60;;;5.00;1.00;;;;;;5119010;28;20251;-79
2024/03/06 08:11:11;;;;;;;28.23;16.30;;;4.70;1.00;;;;;;5115203;28;20213;-80
2024/03/06 08:13:38;;;;;;;29.93;15.70;;;4.70;99.90;;;;;;5115849;28;20217;-79
2024/03/06 08:16:06;;;;;;;25.27;13.30;;;4.70;99.90;;;;;;5107359;28;20201;-79
2024/03/06 08:18:34;;;;;;;32.13;17.10;;;4.70;1.00;;;;;;5111455;28;20209;-80
2024/03/06 08:21:02;;;;;;;31.17;16.57;;;4.70;1.00;;;;;;5102388;28;20218;-80
2024/03/06 08:23:30;;;;;;;30.80;16.03;;;4.70;1.00;;;;;;5109751;28;20205;-81
2024/03/06 08:25:57;;;;;;;29.23;15.73;;;4.70;1.00;;;;;;5109553;28;20296;-82
2024/03/06 08:28:23;;;;;;;33.20;16.43;;;4.80;99.90;;;;;;5107939;28;20204;-80
2024/03/06 08:30:52;;;;;;;31.17;15.40;;;4.70;1.00;;;;;;5104871;28;20225;-80
2024/03/06 08:33:20;;;;;;;27.53;13.10;;;4.80;99.90;;;;;;5110562;28;20224;-81
2024/03/06 08:35:47;;;;;;;33.13;17.60;;;4.80;1.00;;;;;;5105373;27;20204;-81
2024/03/06 08:38:14;;;;;;;29.83;16.50;;;4.80;99.90;;;;;;5103459;28;20204;-81
2024/03/06 08:40:45;;;;;;;30.97;16.43;;;4.90;9.20;;;;;;5102518;28;20222;-81
2024/03/06 08:43:12;;;;;;;33.00;18.00;;;4.80;34.30;;;;;;5105232;28;20198;-81
2024/03/06 08:45:39;;;;;;;32.03;16.80;;;4.90;99.90;;;;;;5102853;28;20213;-81
2024/03/06 08:48:06;;;;;;;33.50;17.87;;;5.00;99.90;;;;;;5105971;28;20200;-81
2024/03/06 08:50:33;;;;;;;31.83;16.83;;;4.90;1.00;;;;;;5108065;28;20229;-82
2024/03/06 08:53:01;;;;;;;30.43;16.50;;;4.90;1.00;;;;;;5105102;28;20326;-81
2024/03/06 08:55:29;;;;;;;30.40;16.87;;;4.90;1.00;;;;;;5102272;28;20203;-80
2024/03/06 08:57:58;;;;;;;32.03;17.27;;;4.90;1.00;;;;;;5105094;28;20239;-79
2024/03/06 09:00:26;;;;;;;29.70;14.37;;;5.20;1.00;;;;;;5104454;28;20240;-80
2024/03/06 09:02:53;;;;;;;32.23;17.60;;;4.90;1.00;;;;;;5109232;28;20209;-80
2024/03/06 09:05:21;;;;;;;34.70;17.80;;;5.00;1.00;;;;;;5105074;28;20639;-81
2024/03/06 09:07:48;;;;;;;31.67;17.67;;;4.90;1.00;;;;;;5110058;28;20209;-80
2024/03/06 09:10:15;;;;;;;29.33;16.07;;;5.40;1.00;;;;;;5112338;28;20220;-80
2024/03/06 09:12:42;;;;;;;30.60;16.53;;;5.00;1.00;;;;;;5109360;28;20226;-84
2024/03/06 09:15:11;;;;;;;34.43;18.13;;;5.10;1.00;;;;;;5109777;28;20209;-81
2024/03/06 09:17:38;;;;;;;32.63;19.37;;;5.10;1.00;;;;;;5102293;28;20193;-84
2024/03/06 09:20:09;;;;;;;30.63;16.73;;;5.10;1.00;;;;;;5106224;28;20232;-81
2024/03/06 09:22:37;;;;;;;28.93;17.57;;;5.20;1.00;;;;;;5102218;28;20258;-80
2024/03/06 09:25:04;;;;;;;30.93;18.13;;;5.20;1.00;;;;;;5105947;28;20622;-80
2024/03/06 09:27:31;;;;;;;32.53;17.67;;;5.50;1.00;;;;;;5108631;28;20215;-82
2024/03/06 09:29:58;;;;;;;34.00;18.77;;;5.40;1.00;;;;;;5097857;28;20227;-80
2024/03/06 09:32:27;;;;;;;29.63;17.70;;;5.40;1.00;;;;;;5099551;28;20594;-81
2024/03/06 09:34:53;;;;;;;33.83;18.73;;;5.40;1.00;;;;;;5102816;28;20209;-80
2024/03/06 09:37:20;;;;;;;27.17;16.10;;;5.40;99.90;;;;;;5108616;28;20659;-81
2024/03/06 09:39:47;;;;;;;31.80;18.47;;;5.50;99.90;;;;;;5097510;28;20221;-83
2024/03/06 09:42:14;;;;;;;33.07;17.20;;;5.60;99.90;;;;;;5104500;28;20197;-80
2024/03/06 09:44:41;;;;;;;31.50;18.07;;;5.70;99.90;;;;;;5100860;28;20206;-80
2024/03/06 09:47:11;;;;;;;30.93;17.87;;;5.70;99.90;;;;;;5111270;28;20201;-80
2024/03/06 09:49:40;;;;;;;32.43;18.67;;;5.80;99.90;;;;;;5105204;28;20211;-82
2024/03/06 09:52:07;;;;;;;34.00;19.63;;;5.90;99.90;;;;;;5105179;28;20197;-80
2024/03/06 09:54:34;;;;;;;31.27;19.13;;;5.90;99.90;;;;;;5111345;28;20231;-81
2024/03/06 09:57:01;;;;;;;29.90;17.90;;;5.90;99.90;;;;;;5111480;28;20205;-80
2024/03/06 09:59:28;;;;;;;34.93;18.40;;;6.00;99.90;;;;;;5112992;28;20242;-81
2024/03/06 10:01:56;;;;;;;32.00;19.20;;;6.10;1.00;;;;;;5104915;28;20570;-79
2024/03/06 10:04:25;;;;;;;33.43;19.03;;;6.30;38.60;;;;;;5104810;28;20193;-80
2024/03/06 10:06:55;;;;;;;29.20;17.83;;;6.30;54.60;;;;;;5109890;28;20602;-80
2024/03/06 10:09:22;;;;;;;30.37;18.37;;;6.30;1.00;;;;;;5105297;28;20197;-80
2024/03/06 10:11:49;;;;;;;33.30;20.73;;;6.30;1.00;;;;;;5101971;28;20205;-82
2024/03/06 10:14:16;;;;;;;34.80;19.40;;;6.50;1.00;;;;;;5112006;28;20227;-80
2024/03/06 10:16:54;;;;;;;32.40;20.23;;;6.60;24.30;;;;;;5107876;28;20201;-80
2024/03/06 10:19:21;;;;;;;32.37;18.67;;;6.70;99.90;;;;;;5098601;28;20259;-82
2024/03/06 10:21:50;;;;;;;33.30;19.90;;;6.80;1.00;;;;;;5109541;28;20206;-81
2024/03/06 10:24:21;;;;;;;35.70;20.50;;;7.00;1.00;;;;;;5105995;28;20190;-81
2024/03/06 10:26:48;;;;;;;33.57;20.60;;;6.90;1.00;;;;;;5110589;28;20287;-80
2024/03/06 10:29:17;;;;;;;35.17;20.43;;;7.10;1.00;;;;;;5105685;28;20207;-81
2024/03/06 10:31:49;;;;;;;29.83;18.13;;;7.20;1.00;;;;;;5111046;28;20282;-82
2024/03/06 10:34:16;;;;;;;29.83;17.17;;;7.20;99.90;;;;;;5105448;28;20221;-81
2024/03/06 10:36:44;;;;;;;30.23;17.67;;;7.20;99.90;;;;;;5096932;28;20633;-80
2024/03/06 10:39:13;;;;;;;30.83;18.70;;;7.20;99.90;;;;;;5096569;28;20201;-80
2024/03/06 10:41:41;;;;;;;31.40;18.23;;;7.40;82.30;;;;;;5094352;28;20247;-78
2024/03/06 10:44:14;;;;;;;30.13;17.87;;;7.50;40.40;;;;;;5099766;28;20600;-79
2024/03/06 10:46:44;;;;;;;29.97;18.53;;;7.50;1.00;;;;;;5110130;28;20209;-80
2024/03/06 10:49:12;;;;;;;27.07;17.57;;;7.60;1.00;;;;;;5108869;28;20204;-81
2024/03/06 10:51:42;;;;;;;30.67;19.33;;;7.80;1.00;;;;;;5102185;28;20225;-81
2024/03/06 10:54:10;;;;;;;29.37;17.93;;;7.90;1.00;;;;;;5105205;28;20228;-79
2024/03/06 10:56:42;;;;;;;30.70;18.00;;;7.90;1.00;;;;;;5101717;28;20201;-80
2024/03/06 10:59:12;;;;;;;30.37;17.83;;;7.80;1.00;;;;;;5105995;28;20196;-81
2024/03/06 11:01:40;;;;;;;27.10;17.30;;;7.80;1.00;;;;;;5105904;28;20616;-81
2024/03/06 11:04:07;;;;;;;28.77;17.23;;;7.80;1.00;;;;;;5105969;28;20201;-81
2024/03/06 11:06:34;;;;;;;31.30;18.43;;;7.70;1.00;;;;;;5106121;28;20214;-82
2024/03/06 11:09:01;;;;;;;26.43;16.03;;;7.70;1.00;;;;;;5101217;28;20663;-82
2024/03/06 11:11:28;;;;;;;29.03;16.53;;;7.90;1.00;;;;;;5104229;28;20224;-81
2024/03/06 11:14:01;;;;;;;29.17;17.13;;;7.90;1.00;;;;;;5104630;28;20221;-82
2024/03/06 11:16:29;;;;;;;27.73;17.97;;;8.00;1.00;;;;;;5098212;28;20197;-81
2024/03/06 11:19:07;;;;;;;28.17;16.67;;;8.00;1.00;;;;;;5106138;28;20208;-81
2024/03/06 11:21:34;;;;;;;26.87;16.70;;;8.10;1.00;;;;;;5107412;28;20250;-81
2024/03/06 11:24:15;;;;;;;26.93;16.03;;;8.30;1.00;;;;;;5101270;28;20291;-81
2024/03/06 11:26:44;;;;;;;25.80;15.43;;;8.20;1.00;;;;;;5110941;28;20323;-81
2024/03/06 11:29:12;;;;;;;26.17;15.70;;;8.00;99.90;;;;;;5104329;28;20201;-80
2024/03/06 11:31:39;;;;;;;27.00;14.90;;;8.00;99.90;;;;;;5102525;28;20284;-80
2024/03/06 11:34:15;;;;;;;23.80;14.77;;;7.90;99.90;;;;;;5098800;28;20216;-81
2024/03/06 11:36:42;;;;;;;25.63;14.47;;;7.90;99.90;;;;;;5105714;28;20265;-80
2024/03/06 11:39:10;;;;;;;27.50;15.70;;;8.00;99.90;;;;;;5096380;28;20196;-80
2024/03/06 11:41:48;;;;;;;24.53;16.23;;;8.00;99.90;;;;;;5100164;28;20221;-80
2024/03/06 11:44:18;;;;;;;24.00;14.97;;;8.00;99.90;;;;;;5108839;28;20208;-80
2024/03/06 11:46:47;;;;;;;27.57;16.33;;;7.80;99.90;;;;;;5099639;28;20243;-80
2024/03/06 11:49:20;;;;;;;25.30;15.67;;;8.00;99.90;;;;;;5110649;28;20205;-81
2024/03/06 11:51:48;;;;;;;26.37;15.13;;;8.00;99.90;;;;;;5100899;28;20202;-80
2024/03/06 11:54:14;;;;;;;27.27;17.07;;;8.00;99.90;;;;;;5100671;28;20695;-81
2024/03/06 11:56:42;;;;;;;28.23;17.20;;;8.00;99.90;;;;;;5099606;28;20218;-82
2024/03/06 11:59:09;;;;;;;25.40;14.20;;;8.20;99.90;;;;;;5099894;28;20222;-81
2024/03/06 12:01:38;;;;;;;27.83;15.87;;;8.20;99.90;;;;;;5102792;28;20257;-81
2024/03/06 12:04:05;;;;;;;27.17;16.40;;;8.20;99.90;;;;;;5107224;28;20643;-82
2024/03/06 12:06:34;;;;;;;25.83;15.97;;;8.20;99.90;;;;;;5106521;28;20212;-81
2024/03/06 12:09:00;;;;;;;27.20;16.13;;;8.30;99.90;;;;;;5104072;28;20205;-80
2024/03/06 12:11:28;;;;;;;28.57;16.60;;;8.20;99.90;;;;;;5101651;28;20243;-81
2024/03/06 12:13:55;;;;;;;27.40;16.47;;;8.20;99.90;;;;;;5103199;28;20786;-82
2024/03/06 12:16:22;;;;;;;28.77;15.60;;;8.30;99.90;;;;;;5105800;28;20204;-82
2024/03/06 12:18:57;;;;;;;25.40;15.53;;;8.10;99.90;;;;;;5107528;28;20304;-81
2024/03/06 12:21:28;;;;;;;27.77;16.60;;;8.10;99.90;;;;;;5108970;28;20477;-81
2024/03/06 12:24:04;;;;;;;27.90;16.23;;;8.20;99.90;;;;;;5103636;28;20661;-81
2024/03/06 12:26:31;;;;;;;25.87;15.87;;;8.30;99.90;;;;;;5095799;28;20193;-81
2024/03/06 12:29:09;;;;;;;24.07;15.60;;;8.20;99.90;;;;;;5099069;28;20206;-81
2024/03/06 12:31:37;;;;;;;29.83;16.80;;;8.30;99.90;;;;;;5099771;28;20326;-82
2024/03/06 12:34:06;;;;;;;23.63;16.03;;;8.30;99.90;;;;;;5109618;28;20225;-82
2024/03/06 12:36:34;;;;;;;25.43;16.33;;;8.50;99.90;;;;;;5104138;27;20201;-81
2024/03/06 12:39:02;;;;;;;25.23;15.43;;;8.30;99.90;;;;;;5101969;28;20696;-81
2024/03/06 12:41:29;;;;;;;23.53;15.37;;;8.40;99.90;;;;;;5108367;28;20244;-80
2024/03/06 12:43:57;;;;;;;24.53;15.50;;;8.30;99.90;;;;;;5107683;28;20747;-80
2024/03/06 12:46:26;;;;;;;25.90;16.73;;;8.30;99.90;;;;;;5101226;28;20203;-79